createdAt,value
2023-05-09T00:00:18.444Z,101591.00
2023-05-09T00:02:46.844Z,101551.00
2023-05-09T00:05:16.094Z,101561.00
2023-05-09T00:07:45.690Z,101578.00
2023-05-09T00:10:15.770Z,101585.00
2023-05-09T00:12:44.234Z,101551.00
2023-05-09T00:15:13.859Z,101538.00
2023-05-09T00:17:42.965Z,101579.00
2023-05-09T00:20:12.525Z,101539.00
2023-05-09T00:22:41.964Z,101579.00
2023-05-09T00:25:12.664Z,101546.00
2023-05-09T00:27:47.122Z,101539.00
2023-05-09T00:30:16.039Z,101545.00
2023-05-09T00:32:45.199Z,101572.00
2023-05-09T00:35:13.808Z,101536.00
2023-05-09T00:37:42.335Z,101514.00
2023-05-09T00:40:12.122Z,101555.00
2023-05-09T00:42:42.568Z,101533.00
2023-05-09T00:45:12.830Z,101548.00
2023-05-09T00:47:44.345Z,101518.00
2023-05-09T00:50:13.880Z,101509.00
2023-05-09T00:52:46.314Z,101520.00
2023-05-09T00:55:16.526Z,101503.00
2023-05-09T00:57:47.067Z,101499.00
2023-05-09T01:00:16.834Z,101516.00
2023-05-09T01:02:48.021Z,101473.00
2023-05-09T01:05:17.133Z,101511.00
2023-05-09T01:07:53.434Z,101505.00
2023-05-09T01:10:32.630Z,101469.00
2023-05-09T01:13:07.581Z,101495.00
2023-05-09T01:15:41.169Z,101491.00
2023-05-09T01:18:17.211Z,101462.00
2023-05-09T01:20:50.549Z,101459.00
2023-05-09T01:23:55.773Z,101480.00
2023-05-09T01:26:36.611Z,101449.00
2023-05-09T01:29:38.624Z,101439.00
2023-05-09T01:32:11.123Z,101449.00
2023-05-09T01:34:45.488Z,101460.00
2023-05-09T01:37:16.423Z,101441.00
2023-05-09T01:39:50.344Z,101464.00
2023-05-09T01:42:22.213Z,101406.00
2023-05-09T01:44:53.189Z,101466.00
2023-05-09T01:47:23.257Z,101467.00
2023-05-09T01:49:53.744Z,101445.00
2023-05-09T01:52:22.788Z,101458.00
2023-05-09T01:54:52.865Z,101405.00
2023-05-09T01:57:22.127Z,101415.00
2023-05-09T01:59:53.823Z,101443.00
2023-05-09T02:02:22.983Z,101474.00
2023-05-09T02:04:52.093Z,101460.00
2023-05-09T02:07:22.101Z,101442.00
2023-05-09T02:09:52.138Z,101431.00
2023-05-09T02:12:20.930Z,101467.00
2023-05-09T02:14:50.993Z,101437.00
2023-05-09T02:17:19.646Z,101464.00
2023-05-09T02:19:47.868Z,101459.00
2023-05-09T02:22:16.965Z,101439.00
2023-05-09T02:24:46.390Z,101448.00
2023-05-09T02:27:15.970Z,101440.00
2023-05-09T02:29:49.724Z,101445.00
2023-05-09T02:32:25.836Z,101451.00
2023-05-09T02:34:56.670Z,101422.00
2023-05-09T02:37:26.206Z,101434.00
2023-05-09T02:39:54.876Z,101398.00
2023-05-09T02:42:26.130Z,101441.00
2023-05-09T02:44:54.807Z,101443.00
2023-05-09T02:47:25.800Z,101406.00
2023-05-09T02:49:54.217Z,101431.00
2023-05-09T02:52:22.966Z,101422.00
2023-05-09T02:54:51.133Z,101398.00
2023-05-09T02:57:19.820Z,101405.00
2023-05-09T02:59:48.460Z,101442.00
2023-05-09T03:02:18.038Z,101409.00
2023-05-09T03:04:48.375Z,101422.00
2023-05-09T03:07:19.535Z,101392.00
2023-05-09T03:09:47.979Z,101384.00
2023-05-09T03:12:16.628Z,101406.00
2023-05-09T03:14:44.795Z,101394.00
2023-05-09T03:17:13.062Z,101385.00
2023-05-09T03:19:41.297Z,101348.00
2023-05-09T03:22:11.758Z,101401.00
2023-05-09T03:24:40.670Z,101407.00
2023-05-09T03:27:09.194Z,101362.00
2023-05-09T03:29:37.629Z,101398.00
2023-05-09T03:32:06.583Z,101373.00
2023-05-09T03:34:34.808Z,101331.00
2023-05-09T03:37:03.202Z,101368.00
2023-05-09T03:39:32.915Z,101361.00
2023-05-09T03:42:01.061Z,101328.00
2023-05-09T03:44:29.377Z,101342.00
2023-05-09T03:47:00.041Z,101377.00
2023-05-09T03:49:29.078Z,101373.00
2023-05-09T03:51:57.334Z,101361.00
2023-05-09T03:54:28.304Z,101341.00
2023-05-09T03:56:57.889Z,101371.00
2023-05-09T03:59:26.460Z,101344.00
2023-05-09T04:01:55.146Z,101369.00
2023-05-09T04:04:24.058Z,101369.00
2023-05-09T04:06:52.467Z,101363.00
2023-05-09T04:09:21.211Z,101361.00
2023-05-09T04:11:49.819Z,101370.00
2023-05-09T04:14:22.289Z,101364.00
2023-05-09T04:16:50.529Z,101335.00
2023-05-09T04:19:18.673Z,101364.00
2023-05-09T04:21:46.840Z,101330.00
2023-05-09T04:24:15.378Z,101356.00
2023-05-09T04:26:46.787Z,101356.00
2023-05-09T04:29:15.063Z,101360.00
2023-05-09T04:31:44.892Z,101350.00
2023-05-09T04:34:13.719Z,101312.00
2023-05-09T04:36:44.184Z,101321.00
2023-05-09T04:39:12.886Z,101324.00
2023-05-09T04:41:43.770Z,101357.00
2023-05-09T04:44:12.386Z,101350.00
2023-05-09T04:46:43.913Z,101357.00
2023-05-09T04:49:13.932Z,101319.00
2023-05-09T04:51:44.739Z,101329.00
2023-05-09T04:54:13.272Z,101308.00
2023-05-09T04:56:41.962Z,101317.00
2023-05-09T04:59:10.225Z,101344.00
2023-05-09T05:01:38.576Z,101291.00
2023-05-09T05:04:06.871Z,101321.00
2023-05-09T05:06:37.019Z,101319.00
2023-05-09T05:09:06.162Z,101312.00
2023-05-09T05:11:34.524Z,101320.00
2023-05-09T05:14:03.050Z,101325.00
2023-05-09T05:16:31.251Z,101287.00
2023-05-09T05:18:59.818Z,101275.00
2023-05-09T05:21:28.128Z,101304.00
2023-05-09T05:23:58.160Z,101281.00
2023-05-09T05:26:26.829Z,101283.00
2023-05-09T05:28:59.069Z,101307.00
2023-05-09T05:31:27.935Z,101316.00
2023-05-09T05:34:03.345Z,101311.00
2023-05-09T05:36:32.817Z,101287.00
2023-05-09T05:39:02.874Z,101297.00
2023-05-09T05:41:31.762Z,101298.00
2023-05-09T05:44:01.290Z,101277.00
2023-05-09T05:46:29.887Z,101270.00
2023-05-09T05:48:58.215Z,101281.00
2023-05-09T05:51:26.360Z,101242.00
2023-05-09T05:53:54.528Z,101234.00
2023-05-09T05:56:29.305Z,101277.00
2023-05-09T05:59:01.551Z,101287.00
2023-05-09T06:01:30.281Z,101258.00
2023-05-09T06:03:58.869Z,101284.00
2023-05-09T06:06:28.540Z,101279.00
2023-05-09T06:08:57.445Z,101231.00
2023-05-09T06:11:27.413Z,101262.00
2023-05-09T06:13:55.625Z,101259.00
2023-05-09T06:16:24.038Z,101270.00
2023-05-09T06:18:55.786Z,101273.00
2023-05-09T06:21:27.715Z,101228.00
2023-05-09T06:24:05.013Z,101218.00
2023-05-09T06:26:40.635Z,101237.00
2023-05-09T06:29:09.104Z,101221.00
2023-05-09T06:31:41.426Z,101241.00
2023-05-09T06:34:09.722Z,101232.00
2023-05-09T06:36:37.924Z,101219.00
2023-05-09T06:39:06.307Z,101250.00
2023-05-09T06:41:34.497Z,101226.00
2023-05-09T06:44:04.683Z,101225.00
2023-05-09T06:46:33.128Z,101240.00
2023-05-09T06:49:02.758Z,101192.00
2023-05-09T06:51:31.421Z,101218.00
2023-05-09T06:54:00.091Z,101225.00
2023-05-09T07:10:50.375Z,101213.00
2023-05-09T07:13:48.023Z,101196.00
2023-05-09T07:16:18.273Z,101190.00
2023-05-09T07:18:50.034Z,101192.00
2023-05-09T07:21:20.541Z,101179.00
2023-05-09T07:23:48.858Z,101184.00
2023-05-09T07:26:17.248Z,101146.00
2023-05-09T07:28:47.042Z,101167.00
2023-05-09T07:31:15.375Z,101171.00
2023-05-09T07:33:44.400Z,101187.00
2023-05-09T07:36:14.825Z,101169.00
2023-05-09T07:38:43.353Z,101163.00
2023-05-09T07:41:11.617Z,101150.00
2023-05-09T07:43:40.511Z,101171.00
2023-05-09T07:46:16.678Z,101170.00
2023-05-09T07:48:45.326Z,101194.00
2023-05-09T07:51:14.375Z,101184.00
2023-05-09T07:53:43.092Z,101139.00
2023-05-09T07:56:14.708Z,101160.00
2023-05-09T07:58:43.069Z,101176.00
2023-05-09T08:01:12.767Z,101161.00
2023-05-09T08:03:41.536Z,101159.00
2023-05-09T08:06:12.596Z,101125.00
2023-05-09T08:08:41.111Z,101149.00
2023-05-09T08:11:09.345Z,101158.00
2023-05-09T08:13:37.908Z,101147.00
2023-05-09T08:16:06.881Z,101145.00
2023-05-09T08:18:36.792Z,101109.00
2023-05-09T08:21:05.330Z,101123.00
2023-05-09T08:23:33.572Z,101110.00
2023-05-09T08:26:02.024Z,101093.00
2023-05-09T08:28:30.585Z,101082.00
2023-05-09T08:30:59.103Z,101124.00
2023-05-09T08:33:27.555Z,101103.00
2023-05-09T08:35:57.498Z,101125.00
2023-05-09T08:38:26.133Z,101118.00
2023-05-09T08:40:54.506Z,101083.00
2023-05-09T08:43:25.131Z,101106.00
2023-05-09T08:45:58.669Z,101112.00
2023-05-09T08:48:28.050Z,101064.00
2023-05-09T08:50:58.594Z,101068.00
2023-05-09T08:53:27.090Z,101095.00
2023-05-09T08:55:55.742Z,101089.00
2023-05-09T08:58:24.346Z,101093.00
2023-05-09T09:00:52.734Z,101059.00
2023-05-09T09:03:21.637Z,101050.00
2023-05-09T09:05:51.357Z,101072.00
2023-05-09T09:18:05.327Z,101072.00
2023-05-09T09:20:36.886Z,101046.00
2023-05-09T09:23:12.792Z,101041.00
2023-05-09T09:25:41.082Z,101065.00
2023-05-09T09:28:09.467Z,101042.00
2023-05-09T09:30:45.523Z,101043.00
2023-05-09T09:33:22.500Z,101039.00
2023-05-09T09:35:55.504Z,101041.00
2023-05-09T09:38:26.935Z,101061.00
2023-05-09T09:40:56.657Z,101059.00
2023-05-09T09:43:33.886Z,101054.00
2023-05-09T09:46:03.533Z,101025.00
2023-05-09T09:48:34.882Z,101046.00
2023-05-09T09:51:11.489Z,101047.00
2023-05-09T09:53:44.455Z,101041.00
2023-05-09T09:56:12.834Z,101038.00
2023-05-09T09:58:41.466Z,101035.00
2023-05-09T10:01:13.894Z,101020.00
2023-05-09T10:03:44.168Z,101002.00
2023-05-09T10:06:15.975Z,101014.00
2023-05-09T10:08:48.866Z,101026.00
2023-05-09T10:11:17.209Z,101025.00
2023-05-09T10:13:46.606Z,101026.00
2023-05-09T10:16:16.053Z,101014.00
2023-05-09T10:18:44.683Z,101011.00
2023-05-09T10:21:16.995Z,101025.00
2023-05-09T10:23:49.891Z,101016.00
2023-05-09T10:26:31.243Z,101004.00
2023-05-09T10:29:03.288Z,100995.00
2023-05-09T10:31:36.136Z,100994.00
2023-05-09T10:34:12.331Z,101010.00
2023-05-09T10:36:42.538Z,100994.00
2023-05-09T10:39:11.340Z,100991.00
2023-05-09T10:41:41.177Z,100989.00
2023-05-09T10:44:09.478Z,100991.00
2023-05-09T10:46:38.836Z,100991.00
2023-05-09T10:49:08.215Z,100970.00
2023-05-09T10:51:39.233Z,100998.00
2023-05-09T10:54:17.238Z,100986.00
2023-05-09T10:56:45.702Z,100976.00
2023-05-09T10:59:41.375Z,100980.00
2023-05-09T11:02:15.653Z,100970.00
2023-05-09T11:04:44.645Z,100971.00
2023-05-09T11:07:36.701Z,100960.00
2023-05-09T11:10:18.010Z,100964.00
2023-05-09T11:12:58.361Z,100952.00
2023-05-09T11:15:27.985Z,100964.00
2023-05-09T11:18:08.351Z,100956.00
2023-05-09T11:20:37.671Z,100948.00
2023-05-09T11:23:07.186Z,100942.00
2023-05-09T11:25:36.824Z,100938.00
2023-05-09T11:28:05.431Z,100937.00
2023-05-09T11:30:43.401Z,100935.00
2023-05-09T11:33:24.211Z,100925.00
2023-05-09T11:36:18.521Z,100922.00
2023-05-09T11:38:47.908Z,100912.00
2023-05-09T11:41:17.719Z,100919.00
2023-05-09T11:43:46.383Z,100911.00
2023-05-09T11:46:15.161Z,100913.00
2023-05-09T11:48:43.507Z,100904.00
2023-05-09T11:51:19.188Z,100880.00
2023-05-09T11:53:51.388Z,100900.00
2023-05-09T11:56:23.260Z,100905.00
2023-05-09T11:58:53.445Z,100901.00
2023-05-09T12:01:22.633Z,100900.00
2023-05-09T12:03:52.645Z,100892.00
2023-05-09T12:06:21.386Z,100880.00
2023-05-09T12:08:50.576Z,100892.00
2023-05-09T12:11:21.396Z,100882.00
2023-05-09T12:13:50.810Z,100883.00
2023-05-09T12:16:21.056Z,100860.00
2023-05-09T12:18:51.719Z,100863.00
2023-05-09T12:21:20.867Z,100877.00
2023-05-09T12:23:51.762Z,100859.00
2023-05-09T12:26:23.460Z,100874.00
2023-05-09T12:28:53.303Z,100870.00
2023-05-09T12:31:22.433Z,100862.00
2023-05-09T12:33:50.832Z,100862.00
2023-05-09T12:36:19.081Z,100845.00
2023-05-09T12:38:54.922Z,100856.00
2023-05-09T12:43:56.107Z,100859.00
2023-05-09T12:46:27.739Z,100859.00
2023-05-09T12:48:56.506Z,100860.00
2023-05-09T12:51:25.844Z,100860.00
2023-05-09T12:53:54.157Z,100856.00
2023-05-09T12:56:24.489Z,100864.00
2023-05-09T12:58:55.125Z,100855.00
2023-05-09T13:01:29.381Z,100848.00
2023-05-09T13:04:03.969Z,100854.00
2023-05-09T13:06:32.939Z,100867.00
2023-05-09T13:09:03.012Z,100862.00
2023-05-09T13:11:33.460Z,100869.00
2023-05-09T13:14:03.254Z,100846.00
2023-05-09T13:16:31.644Z,100857.00
2023-05-09T13:19:01.563Z,100856.00
2023-05-09T13:21:29.935Z,100850.00
2023-05-09T13:23:58.198Z,100850.00
2023-05-09T13:26:27.364Z,100843.00
2023-05-09T13:28:57.294Z,100839.00
2023-05-09T13:31:26.324Z,100838.00
2023-05-09T13:33:54.661Z,100797.00
2023-05-09T13:36:26.089Z,100826.00
2023-05-09T13:38:54.644Z,100828.00
2023-05-09T13:41:24.023Z,100819.00
2023-05-09T13:43:52.672Z,100812.00
2023-05-09T13:46:22.496Z,100787.00
2023-05-09T13:48:50.691Z,100816.00
2023-05-09T13:51:18.886Z,100820.00
2023-05-09T13:53:47.757Z,100818.00
2023-05-09T13:56:19.555Z,100815.00
2023-05-09T13:58:47.877Z,100800.00
2023-05-09T14:01:16.058Z,100813.00
2023-05-09T14:03:47.215Z,100813.00
2023-05-09T14:06:15.592Z,100805.00
2023-05-09T14:08:44.155Z,100800.00
2023-05-09T14:11:12.390Z,100800.00
2023-05-09T14:13:41.004Z,100797.00
2023-05-09T14:16:09.644Z,100803.00
2023-05-09T14:18:37.898Z,100801.00
2023-05-09T14:21:08.191Z,100791.00
2023-05-09T14:23:36.361Z,100789.00
2023-05-09T14:26:04.940Z,100782.00
2023-05-09T14:28:33.222Z,100791.00
2023-05-09T14:31:01.557Z,100775.00
2023-05-09T14:33:29.705Z,100742.00
2023-05-09T14:35:58.046Z,100783.00
2023-05-09T14:38:28.056Z,100775.00
2023-05-09T14:40:58.138Z,100777.00
2023-05-09T14:43:26.432Z,100775.00
2023-05-09T14:45:54.679Z,100772.00
2023-05-09T14:48:23.637Z,100768.00
2023-05-09T14:50:56.236Z,100771.00
2023-05-09T14:53:25.757Z,100775.00
2023-05-09T14:55:56.174Z,100752.00
2023-05-09T14:58:24.843Z,100751.00
2023-05-09T15:00:53.465Z,100754.00
2023-05-09T15:03:22.281Z,100757.00
2023-05-09T15:05:51.468Z,100753.00
2023-05-09T15:08:19.603Z,100713.00
2023-05-09T15:10:48.205Z,100741.00
2023-05-09T15:13:17.882Z,100740.00
2023-05-09T15:15:46.255Z,100737.00
2023-05-09T15:18:16.521Z,100693.00
2023-05-09T15:20:44.986Z,100706.00
2023-05-09T15:23:13.678Z,100730.00
2023-05-09T15:25:43.441Z,100720.00
2023-05-09T15:28:12.201Z,100714.00
2023-05-09T15:30:41.820Z,100728.00
2023-05-09T15:33:10.281Z,100742.00
2023-05-09T15:35:38.780Z,100683.00
2023-05-09T15:38:07.904Z,100725.00
2023-05-09T15:40:37.863Z,100731.00
2023-05-09T15:43:08.557Z,100691.00
2023-05-09T15:45:37.880Z,100699.00
2023-05-09T15:48:07.758Z,100725.00
2023-05-09T15:50:36.050Z,100710.00
2023-05-09T15:53:04.356Z,100715.00
2023-05-09T15:55:33.656Z,100704.00
2023-05-09T15:58:02.773Z,100683.00
2023-05-09T16:00:31.065Z,100704.00
2023-05-09T16:03:02.499Z,100677.00
2023-05-09T16:05:32.538Z,100685.00
2023-05-09T16:08:06.477Z,100702.00
2023-05-09T16:10:34.850Z,100700.00
2023-05-09T16:13:03.475Z,100687.00
2023-05-09T16:15:35.332Z,100695.00
2023-05-09T16:18:03.554Z,100690.00
2023-05-09T16:20:33.437Z,100673.00
2023-05-09T16:23:01.967Z,100679.00
2023-05-09T16:25:30.348Z,100656.00
2023-05-09T16:27:59.625Z,100680.00
2023-05-09T16:30:28.132Z,100681.00
2023-05-09T16:32:59.754Z,100672.00
2023-05-09T16:35:28.280Z,100660.00
2023-05-09T16:37:58.819Z,100644.00
2023-05-09T16:40:29.832Z,100678.00
2023-05-09T16:42:58.554Z,100672.00
2023-05-09T16:45:26.937Z,100666.00
2023-05-09T16:47:55.776Z,100635.00
2023-05-09T16:50:24.478Z,100659.00
2023-05-09T16:52:53.182Z,100622.00
2023-05-09T16:55:22.706Z,100627.00
2023-05-09T16:57:50.906Z,100627.00
2023-05-09T17:00:20.843Z,100638.00
2023-05-09T17:02:49.219Z,100658.00
2023-05-09T17:05:17.521Z,100636.00
2023-05-09T17:07:46.385Z,100620.00
2023-05-09T17:10:15.229Z,100645.00
2023-05-09T17:12:45.045Z,100629.00
2023-05-09T17:15:13.881Z,100646.00
2023-05-09T17:17:42.189Z,100624.00
2023-05-09T17:20:11.712Z,100605.00
2023-05-09T17:22:40.068Z,100614.00
2023-05-09T17:25:09.785Z,100621.00
2023-05-09T17:27:37.904Z,100645.00
2023-05-09T17:30:09.892Z,100618.00
2023-05-09T17:32:38.241Z,100596.00
2023-05-09T17:35:07.981Z,100630.00
2023-05-09T17:37:36.657Z,100624.00
2023-05-09T17:40:05.937Z,100613.00
2023-05-09T17:42:34.528Z,100589.00
2023-05-09T17:45:02.980Z,100608.00
2023-05-09T17:47:32.970Z,100615.00
2023-05-09T17:50:08.334Z,100608.00
2023-05-09T17:52:36.982Z,100596.00
2023-05-09T17:55:07.926Z,100641.00
2023-05-09T17:57:39.610Z,100635.00
2023-05-09T18:00:10.161Z,100606.00
2023-05-09T18:02:40.627Z,100620.00
2023-05-09T18:05:11.245Z,100619.00
2023-05-09T18:07:41.141Z,100630.00
2023-05-09T18:10:11.060Z,100629.00
2023-05-09T18:12:39.503Z,100635.00
2023-05-09T18:15:10.408Z,100613.00
2023-05-09T18:17:46.233Z,100611.00
2023-05-09T18:20:15.318Z,100583.00
2023-05-09T18:22:44.015Z,100618.00
2023-05-09T18:25:12.277Z,100607.00
2023-05-09T18:27:40.746Z,100621.00
2023-05-09T18:30:10.591Z,100632.00
2023-05-09T18:32:40.436Z,100631.00
2023-05-09T18:35:09.938Z,100613.00
2023-05-09T18:37:38.225Z,100615.00
2023-05-09T18:40:15.918Z,100629.00
2023-05-09T18:42:44.519Z,100608.00
2023-05-09T18:45:14.506Z,100608.00
2023-05-09T18:47:44.143Z,100580.00
2023-05-09T18:50:14.227Z,100617.00
2023-05-09T18:52:46.120Z,100634.00
2023-05-09T18:55:14.932Z,100633.00
2023-05-09T18:57:46.703Z,100636.00
2023-05-09T19:00:16.071Z,100627.00
2023-05-09T19:02:45.772Z,100633.00
2023-05-09T19:05:16.403Z,100627.00
2023-05-09T19:07:44.901Z,100629.00
2023-05-09T19:10:14.406Z,100629.00
2023-05-09T19:12:43.372Z,100608.00
2023-05-09T19:15:12.717Z,100616.00
2023-05-09T19:17:40.887Z,100615.00
2023-05-09T19:20:13.186Z,100601.00
2023-05-09T19:22:46.235Z,100612.00
2023-05-09T19:25:14.454Z,100605.00
2023-05-09T19:27:42.525Z,100599.00
2023-05-09T19:30:13.107Z,100615.00
2023-05-09T19:32:41.337Z,100635.00
2023-05-09T19:35:11.500Z,100614.00
2023-05-09T19:37:39.773Z,100631.00
2023-05-09T19:40:09.495Z,100571.00
2023-05-09T19:42:37.875Z,100592.00
2023-05-09T19:45:07.466Z,100608.00
2023-05-09T19:47:35.847Z,100617.00
2023-05-09T19:50:04.385Z,100629.00
2023-05-09T19:52:36.300Z,100613.00
2023-05-09T19:55:05.899Z,100613.00
2023-05-09T19:57:34.238Z,100570.00
2023-05-09T20:00:03.367Z,100621.00
2023-05-09T20:02:31.842Z,100621.00
2023-05-09T20:05:00.712Z,100618.00
2023-05-09T20:08:21.370Z,100594.00
2023-05-09T20:10:50.621Z,100617.00
2023-05-09T20:13:31.027Z,100592.00
2023-05-09T20:16:04.532Z,100583.00
2023-05-09T20:18:43.171Z,100613.00
2023-05-09T20:21:17.937Z,100600.00
2023-05-09T20:23:59.975Z,100590.00
2023-05-09T20:26:30.268Z,100605.00
2023-05-09T20:29:01.689Z,100617.00
2023-05-09T20:31:30.398Z,100604.00
2023-05-09T20:34:01.373Z,100580.00
2023-05-09T20:36:30.925Z,100623.00
2023-05-09T20:39:01.371Z,100587.00
2023-05-09T20:41:29.955Z,100617.00
2023-05-09T20:44:03.739Z,100615.00
2023-05-09T20:46:32.134Z,100574.00
2023-05-09T20:49:00.997Z,100610.00
2023-05-09T20:51:29.214Z,100610.00
2023-05-09T20:53:57.671Z,100616.00
2023-05-09T20:56:29.196Z,100621.00
2023-05-09T20:58:59.882Z,100613.00
2023-05-09T21:01:39.847Z,100609.00
2023-05-09T21:04:09.754Z,100606.00
2023-05-09T21:06:38.585Z,100608.00
2023-05-09T21:09:09.173Z,100560.00
2023-05-09T21:11:41.448Z,100605.00
2023-05-09T21:14:10.380Z,100604.00
2023-05-09T21:16:38.917Z,100567.00
2023-05-09T21:19:08.766Z,100530.00
2023-05-09T21:21:37.377Z,100566.00
2023-05-09T21:24:09.296Z,100574.00
2023-05-09T21:26:39.049Z,100599.00
2023-05-09T21:29:07.431Z,100604.00
2023-05-09T21:31:35.729Z,100590.00
2023-05-09T21:34:09.732Z,100570.00
2023-05-09T21:36:38.526Z,100545.00
2023-05-09T21:39:09.458Z,100565.00
2023-05-09T21:41:42.678Z,100526.00
2023-05-09T21:44:12.278Z,100567.00
2023-05-09T21:46:41.186Z,100578.00
2023-05-09T21:49:09.389Z,100566.00
2023-05-09T21:51:37.753Z,100568.00
2023-05-09T21:54:06.735Z,100504.00
2023-05-09T21:56:35.025Z,100556.00
2023-05-09T21:59:04.716Z,100535.00
2023-05-09T22:01:33.095Z,100562.00
2023-05-09T22:04:02.245Z,100577.00
2023-05-09T22:06:31.238Z,100551.00
2023-05-09T22:08:59.520Z,100537.00
2023-05-09T22:11:28.055Z,100556.00
2023-05-09T22:13:56.421Z,100572.00
2023-05-09T22:16:26.068Z,100581.00
2023-05-09T22:18:54.862Z,100535.00
2023-05-09T22:21:23.068Z,100539.00
2023-05-09T22:23:51.572Z,100531.00
2023-05-09T22:26:19.773Z,100577.00
2023-05-09T22:28:48.236Z,100548.00
2023-05-09T22:31:16.557Z,100571.00
2023-05-09T22:33:46.195Z,100558.00
2023-05-09T22:36:15.256Z,100545.00
2023-05-09T22:38:44.808Z,100565.00
2023-05-09T22:41:13.437Z,100559.00
2023-05-09T22:43:41.761Z,100511.00
2023-05-09T22:46:10.551Z,100578.00
2023-05-09T22:48:38.749Z,100573.00
2023-05-09T22:51:08.424Z,100581.00
2023-05-09T22:53:36.604Z,100561.00
2023-05-09T22:56:05.302Z,100541.00
2023-05-09T22:58:33.517Z,100558.00
2023-05-09T23:01:01.900Z,100558.00
2023-05-09T23:03:30.232Z,100547.00
2023-05-09T23:05:58.591Z,100547.00
2023-05-09T23:08:28.103Z,100535.00
2023-05-09T23:11:30.495Z,100568.00
2023-05-09T23:25:37.126Z,100562.00
2023-05-09T23:53:19.614Z,100550.00
2023-05-09T23:55:49.099Z,100556.00
2023-05-09T23:58:17.643Z,100505.00
